Wes Sellars — WDF9302 — position and weather

sailwx.info

Track history (hours):
 
Tides and Currents Weather Stations Pressure Air Temp Water Temp Dewpoint Dewpoint Depression Visibility Wind Speed Wind Dir Waves Ship Positions

Wes Sellars

Owner: Florida Marine, LLC, Mandeville, LA. More information available from US FCC via Universal Licensing System and Coast Guard Vessel Documentation Center.

Last reported at 2015-Jul-29 13:14 UTC. Time now 2015-Jul-30 00:04 UTC.
Position N 30°11' W 093°19'.

Length 27 m.

Type: Towing. MMSI: 367503760.

Date/timePositionNaut miles runAvg speedWind from/ knotsBaromVisibWave heightAir tempDewpointWater temp
2015-Jul-29 13:14N 30°11' W 093°19'0 0.0
2015-Jul-29 12:33N 30°11' W 093°19'  
2015-Jul-24 05:33N 29°23' W 094°49'8 7.6
2015-Jul-24 04:33N 29°30' W 094°52'8 7.7
2015-Jul-24 03:33N 29°36' W 094°57'6 6.3
2015-Jul-24 02:33N 29°42' W 095°00'6 6.0
2015-Jul-24 01:32N 29°47' W 095°05'2 2.0
2015-Jul-24 00:33N 29°46' W 095°07'0 0.0
2015-Jul-23 23:29N 29°46' W 095°07'0 0.0
2015-Jul-23 22:33N 29°46' W 095°07'0 0.0
2015-Jul-23 21:33N 29°46' W 095°07'0 0.0
2015-Jul-23 20:31N 29°46' W 095°07'0 0.0
2015-Jul-23 19:32N 29°46' W 095°07'0 0.0
2015-Jul-23 18:30N 29°46' W 095°07'0 0.0
2015-Jul-23 11:09N 29°46' W 095°07'0 0.0
2015-Jul-23 03:17N 29°46' W 095°07'1 1.5
2015-Jul-23 02:33N 29°45' W 095°06'3 2.6
2015-Jul-23 01:32N 29°47' W 095°04'0 0.1
2015-Jul-23 00:33N 29°47' W 095°04'2 0.3
2015-Jul-22 16:15N 29°46' W 095°06'2 2.4
2015-Jul-22 15:18N 29°44' W 095°08'0 0.0
2015-Jul-22 14:30N 29°44' W 095°08'2 0.1
2015-Jul-21 18:15N 29°46' W 095°06'0 0.0
2015-Jul-21 17:30N 29°46' W 095°06'0 0.0
2015-Jul-21 15:18N 29°46' W 095°06'0 0.0
2015-Jul-21 14:12N 29°46' W 095°06'2 3.2
2015-Jul-21 13:33N 29°47' W 095°04'0 0.4
2015-Jul-21 12:34N 29°48' W 095°04'2 0.2
2015-Jul-20 22:33N 29°46' W 095°06'1 0.3
2015-Jul-20 18:20N 29°47' W 095°05'0 0.0
2015-Jul-20 17:32N 29°47' W 095°05'0 0.0
2015-Jul-20 15:15N 29°47' W 095°05'0 0.0
2015-Jul-20 14:30N 29°47' W 095°05'1 0.1
2015-Jul-19 14:33N 29°46' W 095°06'  
Track history (hours):
 
Tides and Currents Weather Stations Pressure Air Temp Water Temp Dewpoint Dewpoint Depression Visibility Wind Speed Wind Dir Waves Ship Positions

Wes Sellars

Owner: Florida Marine, LLC, Mandeville, LA. More information available from US FCC via Universal Licensing System and Coast Guard Vessel Documentation Center.

Last reported at 2015-Jul-29 13:14 UTC. Time now 2015-Jul-30 00:04 UTC.
Position N 30°11' W 093°19'.

Length 27 m.

Type: Towing. MMSI: 367503760.

Date/timePositionNaut miles runAvg speedWind from/ knotsBaromVisibWave heightAir tempDewpointWater temp
2015-Jul-29 13:14N 30°11' W 093°19'0 0.0
2015-Jul-29 12:33N 30°11' W 093°19'  
2015-Jul-24 05:33N 29°23' W 094°49'8 7.6
2015-Jul-24 04:33N 29°30' W 094°52'8 7.7
2015-Jul-24 03:33N 29°36' W 094°57'6 6.3
2015-Jul-24 02:33N 29°42' W 095°00'6 6.0
2015-Jul-24 01:32N 29°47' W 095°05'2 2.0
2015-Jul-24 00:33N 29°46' W 095°07'0 0.0
2015-Jul-23 23:29N 29°46' W 095°07'0 0.0
2015-Jul-23 22:33N 29°46' W 095°07'0 0.0
2015-Jul-23 21:33N 29°46' W 095°07'0 0.0
2015-Jul-23 20:31N 29°46' W 095°07'0 0.0
2015-Jul-23 19:32N 29°46' W 095°07'0 0.0
2015-Jul-23 18:30N 29°46' W 095°07'0 0.0
2015-Jul-23 11:09N 29°46' W 095°07'0 0.0
2015-Jul-23 03:17N 29°46' W 095°07'1 1.5
2015-Jul-23 02:33N 29°45' W 095°06'3 2.6
2015-Jul-23 01:32N 29°47' W 095°04'0 0.1
2015-Jul-23 00:33N 29°47' W 095°04'2 0.3
2015-Jul-22 16:15N 29°46' W 095°06'2 2.4
2015-Jul-22 15:18N 29°44' W 095°08'0 0.0
2015-Jul-22 14:30N 29°44' W 095°08'2 0.1
2015-Jul-21 18:15N 29°46' W 095°06'0 0.0
2015-Jul-21 17:30N 29°46' W 095°06'0 0.0
2015-Jul-21 15:18N 29°46' W 095°06'0 0.0
2015-Jul-21 14:12N 29°46' W 095°06'2 3.2
2015-Jul-21 13:33N 29°47' W 095°04'0 0.4
2015-Jul-21 12:34N 29°48' W 095°04'2 0.2
2015-Jul-20 22:33N 29°46' W 095°06'1 0.3
2015-Jul-20 18:20N 29°47' W 095°05'0 0.0
2015-Jul-20 17:32N 29°47' W 095°05'0 0.0
2015-Jul-20 15:15N 29°47' W 095°05'0 0.0
2015-Jul-20 14:30N 29°47' W 095°05'1 0.1
2015-Jul-19 14:33N 29°46' W 095°06'  

Dump ship's entire track history